Time;durP1;ratioP1;P1;durP2;ratioP2;P2;SDS_P1;SDS_P2;PMS_P1;PMS_P2;Temp;Humidity;BMP_temperature;BMP_pressure;BME280_temperature;BME280_humidity;BME280_pressure;Samples;Min_cycle;Max_cycle;Signal;HPM_P1;HPM_P2
2021/08/04 00:00:22;;;;;;;8.80;6.37;;;;;;;15.30;78.86;98708.16;2228798;80;21277;-83
2021/08/04 00:03:24;;;;;;;10.70;6.35;;;;;;;15.33;79.04;98718.22;2208805;80;20889;-83
2021/08/04 00:06:25;;;;;;;6.40;5.85;;;;;;;15.35;79.36;98716.00;2228041;80;20902;-83
2021/08/04 00:09:25;;;;;;;8.65;5.97;;;;;;;15.38;79.08;98708.52;2231215;80;21150;-83
2021/08/04 00:12:27;;;;;;;7.95;6.53;;;;;;;15.37;79.25;98709.41;2237778;80;20966;-83
2021/08/04 00:15:29;;;;;;;7.72;5.40;;;;;;;15.36;79.72;98705.91;2220358;80;20952;-83
2021/08/04 00:18:30;;;;;;;9.10;5.70;;;;;;;15.38;79.24;98700.19;2238111;80;21340;-83
2021/08/04 00:21:31;;;;;;;7.17;5.67;;;;;;;15.35;79.33;98698.03;2238161;80;20902;-83
2021/08/04 00:24:31;;;;;;;7.87;6.25;;;;;;;15.36;79.38;98701.09;2238207;80;20917;-83
2021/08/04 00:27:32;;;;;;;6.78;5.95;;;;;;;15.35;78.91;98703.30;2237893;80;20937;-83
2021/08/04 00:30:32;;;;;;;6.15;5.58;;;;;;;15.34;78.99;98698.92;2238110;80;21320;-84
2021/08/04 00:33:33;;;;;;;6.72;6.12;;;;;;;15.28;79.07;98699.41;2238253;80;21355;-82
2021/08/04 00:36:33;;;;;;;6.35;5.42;;;;;;;15.25;79.05;98697.25;2238455;80;20952;-82
2021/08/04 00:39:34;;;;;;;8.20;5.67;;;;;;;15.23;79.08;98701.66;2238332;80;20949;-79
2021/08/04 00:42:35;;;;;;;6.72;5.45;;;;;;;15.17;79.10;98695.14;2237734;80;20917;-84
2021/08/04 00:45:35;;;;;;;56.05;42.48;;;;;;;15.12;78.97;98687.28;2238254;80;20929;-83
2021/08/04 00:48:36;;;;;;;12.25;9.88;;;;;;;15.02;79.05;98689.56;2237892;80;21324;-83
2021/08/04 00:51:36;;;;;;;5.83;5.37;;;;;;;14.98;79.06;98687.85;2238056;80;20921;-83
2021/08/04 00:54:36;;;;;;;9.10;5.40;;;;;;;14.94;79.11;98685.69;2238379;80;20929;-81
2021/08/04 00:57:37;;;;;;;5.58;5.00;;;;;;;14.92;79.61;98686.14;2237987;80;20917;-84
2021/08/04 01:00:37;;;;;;;5.40;4.90;;;;;;;14.88;79.69;98680.48;2238078;80;20961;-83
2021/08/04 01:03:38;;;;;;;10.08;5.58;;;;;;;14.85;79.93;98691.46;2238186;80;20921;-80
2021/08/04 01:06:39;;;;;;;5.83;5.22;;;;;;;14.84;80.31;98690.59;2237930;80;20945;-83
2021/08/04 01:09:39;;;;;;;7.25;5.28;;;;;;;14.88;80.68;98693.62;2238192;80;20989;-81
2021/08/04 01:12:40;;;;;;;5.75;5.15;;;;;;;14.88;80.87;98693.62;2237656;80;20997;-83
2021/08/04 01:15:40;;;;;;;6.37;5.42;;;;;;;14.87;80.42;98691.88;2238318;80;20917;-82
2021/08/04 01:18:41;;;;;;;6.67;5.20;;;;;;;14.82;80.24;98691.48;2238197;80;20909;-83
2021/08/04 01:21:41;;;;;;;6.05;5.45;;;;;;;14.78;80.36;98689.77;2238760;80;20909;-83
2021/08/04 01:24:42;;;;;;;9.75;6.20;;;;;;;14.79;80.54;98700.70;2238504;80;20957;-82
2021/08/04 01:27:42;;;;;;;6.70;6.10;;;;;;;14.84;80.85;98700.23;2238311;80;20968;-82
2021/08/04 01:30:43;;;;;;;5.85;5.30;;;;;;;14.88;80.86;98698.01;2238268;80;20913;-84
2021/08/04 01:33:43;;;;;;;25.45;6.08;;;;;;;14.89;80.45;98692.73;2237574;80;20913;-83
2021/08/04 01:36:44;;;;;;;6.03;5.42;;;;;;;14.80;79.92;98680.11;2237583;80;20886;-84
2021/08/04 01:39:44;;;;;;;6.15;5.10;;;;;;;14.73;79.95;98681.01;2237713;80;21032;-85
2021/08/04 01:42:45;;;;;;;7.60;4.92;;;;;;;14.71;80.01;98682.77;2238365;80;21102;-85
2021/08/04 01:45:45;;;;;;;7.20;4.40;;;;;;;14.69;80.24;98686.73;2237424;80;20956;-83
2021/08/04 01:48:46;;;;;;;6.10;5.33;;;;;;;14.68;80.23;98681.05;2237663;80;20965;-84
2021/08/04 01:51:46;;;;;;;19.17;5.70;;;;;;;14.65;80.44;98679.75;2238399;80;21397;-83
2021/08/04 01:54:47;;;;;;;5.20;4.70;;;;;;;14.69;80.80;98674.91;2237803;80;20929;-84
2021/08/04 01:57:47;;;;;;;9.23;5.33;;;;;;;14.75;80.56;98675.34;2238057;80;20964;-84
2021/08/04 02:00:48;;;;;;;6.33;5.60;;;;;;;14.81;80.52;98677.47;2238122;80;20951;-83
2021/08/04 02:03:48;;;;;;;5.30;4.80;;;;;;;14.84;80.45;98689.27;2237931;80;20882;-84
2021/08/04 02:06:49;;;;;;;6.70;5.72;;;;;;;14.85;80.96;98704.16;2237827;80;20991;-85
2021/08/04 02:09:49;;;;;;;6.55;5.90;;;;;;;14.85;81.33;98713.80;2231476;80;20984;-83
2021/08/04 02:12:50;;;;;;;8.93;6.50;;;;;;;14.90;81.28;98687.04;2217135;80;21281;-82
2021/08/04 02:15:50;;;;;;;6.60;5.58;;;;;;;14.98;81.46;98695.73;2217250;80;21021;-82
2021/08/04 02:18:51;;;;;;;25.77;7.17;;;;;;;15.06;81.59;98693.91;2217078;80;20909;-83
2021/08/04 02:21:51;;;;;;;7.22;5.50;;;;;;;15.08;81.33;98688.64;2217418;80;20913;-84
2021/08/04 02:24:52;;;;;;;9.75;8.73;;;;;;;15.09;81.01;98696.95;2217406;80;21285;-84
2021/08/04 02:27:52;;;;;;;6.55;5.83;;;;;;;15.05;80.78;98689.98;2217337;80;20976;-83
2021/08/04 02:30:53;;;;;;;6.08;5.47;;;;;;;15.01;81.05;98691.77;2217365;80;20963;-82
2021/08/04 02:33:53;;;;;;;6.92;5.25;;;;;;;15.05;81.26;98684.73;2217015;80;20905;-83
2021/08/04 02:36:54;;;;;;;7.37;5.30;;;;;;;15.04;81.20;98677.73;2217008;80;20943;-81
2021/08/04 02:39:54;;;;;;;7.28;5.25;;;;;;;15.05;81.41;98683.41;2217002;80;20976;-84
2021/08/04 02:42:55;;;;;;;10.18;5.30;;;;;;;15.10;81.58;98672.41;2217740;80;20947;-81
2021/08/04 02:45:55;;;;;;;7.05;5.20;;;;;;;15.12;81.73;98670.20;2217449;80;21014;-80
2021/08/04 02:48:56;;;;;;;5.40;4.90;;;;;;;15.13;81.95;98661.42;2217255;80;21320;-84
2021/08/04 02:51:56;;;;;;;6.30;4.70;;;;;;;15.12;82.17;98649.61;2217425;80;20913;-84
2021/08/04 02:54:57;;;;;;;6.35;5.75;;;;;;;15.09;82.76;98647.88;2217381;80;20947;-84
2021/08/04 02:57:57;;;;;;;10.05;5.58;;;;;;;15.07;82.55;98641.77;2217110;80;20949;-85
2021/08/04 03:00:58;;;;;;;7.50;5.30;;;;;;;15.07;82.64;98639.14;2217810;80;21320;-84
2021/08/04 03:04:03;;;;;;;6.87;5.05;;;;;;;15.09;82.79;98641.31;2217682;80;20888;-85
2021/08/04 03:07:04;;;;;;;6.55;5.12;;;;;;;15.11;82.77;98639.54;2217590;80;21347;-84
2021/08/04 03:10:04;;;;;;;6.20;5.58;;;;;;;15.09;83.15;98634.73;2212655;79;20981;-83
2021/08/04 03:13:05;;;;;;;8.58;5.75;;;;;;;15.07;83.00;98629.06;2203235;81;20894;-83
2021/08/04 03:16:06;;;;;;;7.42;5.53;;;;;;;15.07;83.24;98623.37;2203308;81;20915;-85
2021/08/04 03:19:06;;;;;;;7.87;5.40;;;;;;;15.09;83.26;98623.35;2203368;81;20948;-86
2021/08/04 03:22:07;;;;;;;13.43;11.35;;;;;;;15.07;83.23;98628.63;2203173;81;21313;-88
2021/08/04 03:25:07;;;;;;;7.05;5.78;;;;;;;15.09;83.44;98625.54;2202911;81;21301;-78
2021/08/04 03:28:08;;;;;;;6.55;5.20;;;;;;;15.09;83.62;98623.35;2203117;81;20897;-85
2021/08/04 03:31:11;;;;;;;6.92;5.35;;;;;;;15.13;83.51;98633.83;2203472;81;20956;-82
2021/08/04 03:34:12;;;;;;;6.95;6.33;;;;;;;15.19;83.58;98642.97;2204010;81;20957;-81
2021/08/04 03:37:12;;;;;;;5.83;5.30;;;;;;;15.40;83.97;98647.58;2203185;81;20905;-80
2021/08/04 03:40:13;;;;;;;5.72;5.22;;;;;;;15.54;82.97;98648.30;2202849;81;20960;-84
2021/08/04 03:43:13;;;;;;;6.37;5.25;;;;;;;15.61;83.15;98652.67;2203813;81;20944;-84
2021/08/04 03:46:14;;;;;;;5.35;4.95;;;;;;;15.59;82.50;98648.70;2202921;81;20952;-84
2021/08/04 03:49:14;;;;;;;7.12;5.10;;;;;;;15.58;82.42;98652.67;2203160;81;20925;-85
2021/08/04 03:52:15;;;;;;;6.50;5.80;;;;;;;15.58;82.39;98660.12;2202691;81;21337;-82
2021/08/04 03:55:15;;;;;;;6.03;5.35;;;;;;;15.58;82.28;98665.82;2202336;81;20925;-83
2021/08/04 03:58:16;;;;;;;6.22;5.10;;;;;;;15.60;82.33;98666.67;2202398;81;20936;-84
2021/08/04 04:01:16;;;;;;;6.15;5.42;;;;;;;15.61;82.36;98672.40;2202280;81;20933;-81
2021/08/04 04:04:17;;;;;;;7.75;5.72;;;;;;;15.61;82.36;98672.40;2202847;81;20977;-84
2021/08/04 04:07:17;;;;;;;6.20;5.60;;;;;;;15.64;82.29;98680.70;2202955;81;20957;-84
2021/08/04 04:10:18;;;;;;;5.67;5.17;;;;;;;15.65;82.39;98695.16;2201842;79;21015;-83
2021/08/04 04:13:18;;;;;;;6.75;5.60;;;;;;;15.64;82.47;98699.13;2202009;81;20961;-83
2021/08/04 04:16:19;;;;;;;6.83;6.15;;;;;;;15.63;82.64;98707.45;2201535;81;20956;-82
2021/08/04 04:19:19;;;;;;;10.40;9.10;;;;;;;15.61;82.43;98710.55;2202665;81;21305;-84
2021/08/04 04:22:20;;;;;;;7.03;6.35;;;;;;;15.64;82.45;98705.70;2202360;81;21099;-84
2021/08/04 04:25:21;;;;;;;10.28;6.60;;;;;;;15.70;82.52;98697.30;2203262;81;20917;-84
2021/08/04 04:28:22;;;;;;;8.20;6.50;;;;;;;15.69;82.46;98698.19;2202926;81;20984;-82
2021/08/04 04:31:22;;;;;;;6.15;5.55;;;;;;;15.68;82.43;98695.13;2202840;81;20949;-85
2021/08/04 04:34:22;;;;;;;8.83;6.00;;;;;;;15.68;82.70;98689.86;2202539;81;20917;-83
2021/08/04 04:37:23;;;;;;;12.45;6.80;;;;;;;15.70;82.59;98694.66;2202739;80;20949;-83
2021/08/04 04:40:24;;;;;;;7.95;6.12;;;;;;;15.72;82.56;98694.20;2202322;81;20999;-84
2021/08/04 04:43:24;;;;;;;6.72;5.85;;;;;;;15.75;82.51;98702.06;2202970;81;20929;-83
2021/08/04 04:46:25;;;;;;;6.70;5.60;;;;;;;15.80;82.64;98709.46;2202641;81;20987;-84
2021/08/04 04:49:25;;;;;;;17.40;9.70;;;;;;;15.86;82.43;98701.49;2202801;81;21300;-81
2021/08/04 04:52:25;;;;;;;7.85;6.22;;;;;;;15.88;82.59;98701.03;2202155;81;20921;-82
2021/08/04 04:55:26;;;;;;;7.78;6.35;;;;;;;15.88;82.19;98711.56;2202570;81;20956;-83
2021/08/04 04:58:26;;;;;;;9.20;6.67;;;;;;;15.89;82.49;98723.83;2203659;81;20937;-81
2021/08/04 05:01:27;;;;;;;14.63;8.20;;;;;;;15.85;82.32;98719.49;2202140;81;20948;-82
2021/08/04 05:04:27;;;;;;;10.60;8.33;;;;;;;15.83;82.93;98721.27;2202521;81;20921;-82
2021/08/04 05:07:28;;;;;;;9.28;8.38;;;;;;;15.83;82.74;98726.98;2201693;81;21396;-82
2021/08/04 05:10:28;;;;;;;8.43;7.62;;;;;;;15.84;82.58;98730.91;2201511;79;21403;-81
2021/08/04 05:13:29;;;;;;;8.53;7.03;;;;;;;15.86;82.44;98734.39;2200934;81;20913;-84
2021/08/04 05:16:29;;;;;;;7.90;7.10;;;;;;;15.89;82.78;98735.67;2201783;81;20964;-82
2021/08/04 05:19:30;;;;;;;8.05;6.85;;;;;;;15.92;82.77;98731.70;2201997;81;21015;-83
2021/08/04 05:22:30;;;;;;;11.15;7.33;;;;;;;15.98;82.88;98738.65;2201860;81;21076;-82
2021/08/04 05:25:31;;;;;;;10.18;6.95;;;;;;;16.01;83.10;98737.30;2201641;81;20960;-82
2021/08/04 05:28:32;;;;;;;8.53;7.47;;;;;;;16.07;82.78;98741.63;2201510;81;21254;-82
2021/08/04 05:31:32;;;;;;;8.10;7.33;;;;;;;16.14;83.11;98752.06;2201420;81;21294;-82
2021/08/04 05:34:32;;;;;;;14.90;7.53;;;;;;;16.22;82.75;98735.72;2201411;81;20917;-82
2021/08/04 05:37:33;;;;;;;8.28;7.47;;;;;;;16.24;82.61;98731.30;2201476;81;20910;-83
2021/08/04 05:40:33;;;;;;;7.78;6.40;;;;;;;16.29;82.27;98724.66;2202222;81;20972;-83
2021/08/04 05:43:34;;;;;;;9.33;6.72;;;;;;;16.35;82.03;98732.93;2202063;81;20932;-82
2021/08/04 05:46:34;;;;;;;6.75;6.12;;;;;;;16.43;82.13;98744.23;2201373;81;21440;-82
2021/08/04 05:49:35;;;;;;;8.95;6.95;;;;;;;16.48;82.04;98749.03;2201586;81;21301;-85
2021/08/04 05:52:35;;;;;;;14.33;8.90;;;;;;;16.52;82.28;98771.37;2202230;81;20961;-82
2021/08/04 05:55:36;;;;;;;17.90;9.00;;;;;;;16.56;82.65;98787.56;2202548;81;20905;-84
2021/08/04 05:58:37;;;;;;;14.33;7.78;;;;;;;16.54;83.01;98781.44;2202611;81;20917;-84
2021/08/04 06:01:37;;;;;;;12.05;6.53;;;;;;;16.48;82.20;98762.20;2202901;81;20932;-81
2021/08/04 06:04:38;;;;;;;8.15;5.80;;;;;;;16.47;82.58;98760.42;2202688;81;20933;-83
2021/08/04 06:07:38;;;;;;;9.33;5.40;;;;;;;16.58;82.46;98761.19;2202803;80;20929;-82
2021/08/04 06:10:44;;;;;;;7.30;5.58;;;;;;;16.55;81.71;98752.01;2206093;79;20996;-81
2021/08/04 06:13:47;;;;;;;8.98;5.15;;;;;;;16.50;81.67;98752.07;2216728;80;20944;-81
2021/08/04 06:16:48;;;;;;;9.10;5.77;;;;;;;16.45;81.51;98738.05;2215792;80;20967;-83
2021/08/04 06:19:48;;;;;;;9.58;5.08;;;;;;;16.47;81.53;98728.81;2216308;80;20928;-84
2021/08/04 06:22:49;;;;;;;6.30;4.92;;;;;;;16.45;81.67;98727.52;2216299;80;20932;-83
2021/08/04 06:25:49;;;;;;;6.50;4.87;;;;;;;16.44;81.53;98727.54;2216446;80;20936;-83
2021/08/04 06:28:50;;;;;;;5.10;4.65;;;;;;;16.45;81.50;98724.02;2216234;80;20905;-82
2021/08/04 06:31:50;;;;;;;5.50;5.00;;;;;;;16.53;81.72;98722.17;2215782;80;21285;-81
2021/08/04 06:34:51;;;;;;;6.17;5.42;;;;;;;16.66;81.59;98734.77;2216669;80;20936;-82
2021/08/04 06:37:52;;;;;;;6.58;4.80;;;;;;;16.84;81.75;98738.45;2216378;80;20931;-83
2021/08/04 06:40:52;;;;;;;6.53;4.85;;;;;;;17.00;80.75;98738.64;2216422;80;21363;-82
2021/08/04 06:43:53;;;;;;;5.70;4.50;;;;;;;17.24;80.69;98740.45;2216753;80;20920;-83
2021/08/04 06:46:53;;;;;;;6.85;4.47;;;;;;;17.51;79.84;98734.29;2216289;80;20999;-81
2021/08/04 06:49:54;;;;;;;7.00;4.55;;;;;;;17.75;79.02;98735.64;2216858;80;20945;-83
2021/08/04 06:52:54;;;;;;;4.65;4.03;;;;;;;18.03;78.07;98732.02;2215981;80;20924;-84
2021/08/04 06:55:55;;;;;;;9.15;5.20;;;;;;;18.34;78.90;98733.61;2216804;80;21343;-83
2021/08/04 06:58:55;;;;;;;6.42;4.37;;;;;;;19.17;80.48;98733.98;2217250;80;20976;-83
2021/08/04 07:01:56;;;;;;;5.37;4.10;;;;;;;20.04;77.55;98730.43;2216778;80;20948;-84
2021/08/04 07:04:57;;;;;;;6.65;4.03;;;;;;;20.59;76.24;98731.50;2217413;80;20932;-83
2021/08/04 07:07:57;;;;;;;4.65;3.37;;;;;;;20.99;74.70;98733.36;2217753;80;20935;-82
2021/08/04 07:10:58;;;;;;;4.15;3.75;;;;;;;21.31;72.74;98730.14;2213604;79;20997;-83
2021/08/04 07:14:02;;;;;;;4.15;3.75;;;;;;;21.52;71.69;98729.88;2202607;81;20964;-83
2021/08/04 07:17:00;;;;;;;3.45;3.08;;;;;;;21.61;71.01;98730.89;2204048;80;20932;-82
2021/08/04 07:20:01;;;;;;;4.55;3.67;;;;;;;21.43;68.88;98728.86;2204485;81;20952;-84
2021/08/04 07:23:02;;;;;;;4.00;3.60;;;;;;;21.08;70.44;98734.84;2203327;81;20921;-83
2021/08/04 07:26:02;;;;;;;6.92;3.58;;;;;;;21.26;70.50;98738.72;2204217;81;20956;-84
2021/08/04 07:29:03;;;;;;;4.35;3.75;;;;;;;21.40;69.65;98737.80;2204875;81;20944;-83
2021/08/04 07:32:03;;;;;;;3.85;3.40;;;;;;;21.40;69.30;98741.78;2204204;81;20965;-83
2021/08/04 07:35:04;;;;;;;4.08;3.62;;;;;;;21.40;68.78;98731.62;2204372;81;21049;-84
2021/08/04 07:38:04;;;;;;;4.05;3.65;;;;;;;21.48;68.64;98733.10;2203433;81;21063;-83
2021/08/04 07:41:06;;;;;;;4.12;3.33;;;;;;;21.53;67.93;98745.77;2201544;81;20953;-81
2021/08/04 07:44:06;;;;;;;4.42;3.55;;;;;;;21.18;67.74;98759.30;2202232;81;21341;-81
2021/08/04 07:47:07;;;;;;;7.30;4.00;;;;;;;21.07;68.49;98758.78;2203534;81;20937;-81
2021/08/04 07:50:08;;;;;;;4.55;3.67;;;;;;;21.28;67.52;98754.14;2203372;81;20933;-83
2021/08/04 07:53:09;;;;;;;5.70;4.30;;;;;;;21.49;66.73;98756.55;2203415;81;20976;-83
2021/08/04 07:56:09;;;;;;;5.55;4.05;;;;;;;21.71;65.32;98759.37;2203676;81;20928;-83
2021/08/04 07:59:10;;;;;;;4.70;4.03;;;;;;;21.90;65.26;98756.02;2203994;81;21337;-84
2021/08/04 08:02:10;;;;;;;4.42;4.00;;;;;;;22.08;64.77;98758.52;2203235;81;20988;-82
2021/08/04 08:05:14;;;;;;;5.25;3.72;;;;;;;22.27;64.33;98753.86;2203092;81;21067;-85
2021/08/04 08:08:16;;;;;;;4.33;3.58;;;;;;;22.53;64.18;98753.75;2203077;81;20960;-84
2021/08/04 08:11:16;;;;;;;4.83;3.55;;;;;;;22.69;63.13;98744.28;2207276;79;21307;-82
2021/08/04 08:14:17;;;;;;;3.77;3.35;;;;;;;22.95;62.23;98739.30;2216769;80;20912;-83
2021/08/04 08:17:17;;;;;;;4.25;3.40;;;;;;;23.14;62.01;98742.09;2217234;80;20965;-82
2021/08/04 08:20:19;;;;;;;5.65;3.40;;;;;;;23.39;61.46;98741.48;2215956;80;21216;-83
2021/08/04 08:23:19;;;;;;;4.25;3.40;;;;;;;23.61;60.72;98729.99;2216598;80;20973;-83
2021/08/04 08:26:20;;;;;;;4.47;3.17;;;;;;;23.88;60.55;98736.80;2217204;80;21085;-85
2021/08/04 08:29:20;;;;;;;3.20;3.00;;;;;;;24.09;59.47;98730.52;2217508;80;20939;-85
2021/08/04 08:32:25;;;;;;;3.45;3.15;;;;;;;24.34;59.07;98736.14;2217095;80;20928;-81
2021/08/04 08:35:23;;;;;;;3.25;2.90;;;;;;;24.43;58.18;98737.91;2217210;80;20968;-82
2021/08/04 08:38:24;;;;;;;4.95;3.02;;;;;;;24.48;56.97;98724.36;2216881;80;21383;-82
2021/08/04 08:41:24;;;;;;;4.35;3.20;;;;;;;24.63;56.60;98741.00;2215992;80;20940;-81
2021/08/04 08:44:25;;;;;;;4.60;2.95;;;;;;;25.09;56.25;98739.70;2217203;80;20901;-81
2021/08/04 08:47:25;;;;;;;5.25;3.15;;;;;;;24.92;55.39;98730.27;2216658;80;20936;-80
2021/08/04 08:50:26;;;;;;;3.98;3.00;;;;;;;24.74;56.49;98723.14;2216684;80;21269;-81
2021/08/04 08:53:26;;;;;;;3.47;2.98;;;;;;;24.55;56.89;98736.48;2217327;80;20956;-82
2021/08/04 08:56:27;;;;;;;6.45;2.60;;;;;;;24.82;56.48;98728.11;2216908;80;20964;-80
2021/08/04 08:59:27;;;;;;;8.88;3.30;;;;;;;25.06;56.72;98729.63;2217384;80;21093;-82
2021/08/04 09:02:30;;;;;;;2.98;2.72;;;;;;;25.04;55.75;98731.52;2217524;80;20943;-82
2021/08/04 09:05:30;;;;;;;2.47;2.27;;;;;;;25.22;54.92;98730.64;2217486;80;21276;-82
2021/08/04 09:08:31;;;;;;;4.12;2.50;;;;;;;25.36;54.57;98721.47;2217473;80;21610;-81
2021/08/04 09:11:31;;;;;;;2.70;2.50;;;;;;;25.52;53.45;98720.23;2220527;79;21020;-84
2021/08/04 09:14:35;;;;;;;4.17;2.47;;;;;;;25.82;53.20;98720.50;2227980;80;20930;-81
2021/08/04 09:17:36;;;;;;;3.67;2.85;;;;;;;26.16;52.52;98717.41;2228054;80;20982;-84
2021/08/04 09:20:36;;;;;;;5.53;2.80;;;;;;;26.29;50.56;98710.45;2227016;80;20925;-81
2021/08/04 09:23:37;;;;;;;5.75;2.30;;;;;;;26.18;50.73;98718.20;2227273;80;20926;-81
2021/08/04 09:26:37;;;;;;;2.67;2.47;;;;;;;26.39;50.46;98719.75;2226951;80;20925;-81
2021/08/04 09:29:38;;;;;;;13.05;3.75;;;;;;;26.59;50.48;98710.15;2227560;80;21313;-83
2021/08/04 09:32:38;;;;;;;6.33;2.72;;;;;;;26.54;50.62;98718.91;2227931;80;20965;-82
2021/08/04 09:35:39;;;;;;;6.95;3.12;;;;;;;26.42;49.84;98719.58;2228123;80;20937;-82
2021/08/04 09:38:39;;;;;;;6.62;2.90;;;;;;;26.26;50.96;98723.53;2228448;80;20992;-84
2021/08/04 09:41:40;;;;;;;3.58;2.75;;;;;;;26.20;50.82;98708.28;2228168;80;21369;-81
2021/08/04 09:44:40;;;;;;;4.42;2.83;;;;;;;26.13;51.52;98714.91;2228276;80;20929;-81
2021/08/04 09:47:41;;;;;;;3.40;2.80;;;;;;;25.85;51.65;98710.98;2227408;80;21005;-81
2021/08/04 09:50:41;;;;;;;5.12;3.12;;;;;;;25.72;52.19;98717.91;2227329;80;20956;-81
2021/08/04 09:53:46;;;;;;;3.87;3.20;;;;;;;25.68;52.17;98717.67;2227290;80;20964;-82
2021/08/04 09:56:44;;;;;;;6.25;3.27;;;;;;;25.67;52.21;98723.96;2226880;79;20930;-82
2021/08/04 09:59:45;;;;;;;3.00;2.80;;;;;;;25.66;52.15;98719.56;2227384;80;20929;-80
2021/08/04 10:02:45;;;;;;;10.08;3.45;;;;;;;25.52;52.43;98708.67;2227060;80;20933;-81
2021/08/04 10:05:46;;;;;;;11.45;3.67;;;;;;;25.59;51.83;98706.95;2227499;80;21325;-81
2021/08/04 10:08:46;;;;;;;6.20;3.12;;;;;;;25.73;51.64;98715.63;2227913;80;20898;-81
2021/08/04 10:11:47;;;;;;;3.67;3.20;;;;;;;25.75;50.36;98704.38;2231845;80;20961;-82
2021/08/04 10:14:47;;;;;;;3.70;3.02;;;;;;;25.71;50.93;98705.48;2238274;80;20949;-81
2021/08/04 10:17:48;;;;;;;7.53;3.60;;;;;;;25.81;50.62;98705.87;2237448;80;21158;-80
2021/08/04 10:20:49;;;;;;;10.53;3.20;;;;;;;25.75;50.46;98705.72;2238536;80;21309;-82
2021/08/04 10:23:49;;;;;;;74.72;7.25;;;;;;;25.69;50.78;98703.36;2238712;80;20926;-81
2021/08/04 10:26:50;;;;;;;12.07;3.50;;;;;;;25.58;51.07;98701.21;2238860;80;20955;-80
2021/08/04 10:29:51;;;;;;;4.50;3.35;;;;;;;25.40;51.49;98696.80;2238268;80;21174;-80
2021/08/04 10:32:52;;;;;;;3.65;3.10;;;;;;;25.39;50.88;98703.95;2238758;80;20972;-80
2021/08/04 10:35:52;;;;;;;4.58;3.10;;;;;;;25.24;51.96;98698.52;2238665;80;21293;-82
2021/08/04 10:38:54;;;;;;;4.22;2.85;;;;;;;25.36;51.05;98701.44;2238557;80;20972;-81
2021/08/04 10:41:54;;;;;;;3.72;3.33;;;;;;;25.05;52.39;98702.53;2239323;80;20984;-81
2021/08/04 10:44:58;;;;;;;3.70;3.33;;;;;;;24.64;51.81;98700.03;2238681;79;21412;-80
2021/08/04 10:47:59;;;;;;;3.55;3.17;;;;;;;24.20;52.93;98706.50;2171826;81;21003;-82
2021/08/04 10:50:59;;;;;;;5.85;3.20;;;;;;;23.99;54.67;98705.66;2171552;81;20915;-82
2021/08/04 10:54:00;;;;;;;3.85;3.52;;;;;;;23.67;54.05;98711.08;2171421;81;20939;-81
2021/08/04 10:57:00;;;;;;;4.08;3.10;;;;;;;23.31;56.05;98715.64;2171684;81;20950;-81
2021/08/04 11:00:01;;;;;;;6.03;3.72;;;;;;;23.20;56.25;98717.41;2171582;81;20951;-82
2021/08/04 11:03:01;;;;;;;4.85;3.60;;;;;;;23.01;58.40;98711.58;2171106;81;20940;-83
2021/08/04 11:06:02;;;;;;;4.37;3.52;;;;;;;22.81;58.68;98703.92;2169851;81;21331;-79
2021/08/04 11:09:02;;;;;;;10.75;4.25;;;;;;;22.60;60.88;98698.55;2171086;81;20947;-76
2021/08/04 11:12:03;;;;;;;6.42;3.90;;;;;;;22.45;61.50;98719.46;2169928;81;21034;-81
2021/08/04 11:15:03;;;;;;;9.80;5.40;;;;;;;22.13;62.21;98725.12;2155616;83;20957;-82
2021/08/04 11:18:05;;;;;;;12.88;5.72;;;;;;;21.65;63.56;98722.36;2155439;82;20901;-80
2021/08/04 11:21:05;;;;;;;9.13;5.20;;;;;;;21.24;65.21;98730.81;2155788;83;20972;-80
2021/08/04 11:24:06;;;;;;;7.05;4.80;;;;;;;20.81;65.19;98731.28;2155509;83;20925;-80
2021/08/04 11:27:06;;;;;;;5.75;4.70;;;;;;;20.54;66.07;98738.73;2155450;83;20949;-81
2021/08/04 11:30:07;;;;;;;9.60;5.45;;;;;;;20.23;68.21;98740.05;2155854;82;21050;-81
2021/08/04 11:33:07;;;;;;;12.55;5.90;;;;;;;19.76;71.19;98748.83;2156931;83;20953;-84
2021/08/04 11:36:08;;;;;;;8.83;4.85;;;;;;;19.22;70.63;98752.39;2155281;83;20929;-80
2021/08/04 11:39:09;;;;;;;5.85;4.30;;;;;;;18.61;70.40;98745.40;2154317;83;20984;-81
2021/08/04 11:42:10;;;;;;;9.33;4.47;;;;;;;18.27;71.09;98741.25;2156658;83;21436;-80
2021/08/04 11:45:10;;;;;;;5.45;4.35;;;;;;;18.15;71.67;98745.43;2156242;83;21298;-79
2021/08/04 11:48:10;;;;;;;13.32;6.10;;;;;;;18.18;72.42;98745.38;2156643;82;20950;-82
2021/08/04 11:51:11;;;;;;;9.88;4.83;;;;;;;18.17;73.23;98738.34;2155858;83;20924;-82
2021/08/04 11:54:11;;;;;;;8.48;4.78;;;;;;;18.25;73.60;98738.22;2155700;83;20902;-81
2021/08/04 11:57:12;;;;;;;7.15;4.75;;;;;;;18.35;73.63;98740.64;2155322;82;21174;-82
2021/08/04 12:00:13;;;;;;;8.10;4.87;;;;;;;18.44;73.85;98739.12;2155284;82;20956;-81
2021/08/04 12:03:13;;;;;;;5.35;4.75;;;;;;;18.48;74.19;98749.63;2155137;83;20909;-81
2021/08/04 12:06:14;;;;;;;5.70;4.95;;;;;;;18.51;73.38;98747.79;2154609;83;20937;-81
2021/08/04 12:09:14;;;;;;;10.00;4.87;;;;;;;18.60;73.41;98737.47;2155205;82;20921;-80
2021/08/04 12:12:15;;;;;;;5.78;4.92;;;;;;;18.87;73.75;98732.04;2156946;82;21440;-81
2021/08/04 12:15:15;;;;;;;6.22;4.67;;;;;;;19.24;73.75;98733.38;2161081;82;20917;-81
2021/08/04 12:18:16;;;;;;;6.05;4.25;;;;;;;19.65;73.05;98729.25;2161850;82;20916;-82
2021/08/04 12:21:17;;;;;;;4.20;3.77;;;;;;;20.07;72.11;98726.83;2162761;82;20961;-82
2021/08/04 12:24:17;;;;;;;4.35;3.95;;;;;;;20.43;71.49;98730.22;2162791;82;20936;-82
2021/08/04 12:27:18;;;;;;;4.05;3.75;;;;;;;20.89;70.35;98725.28;2163069;82;21650;-82
2021/08/04 12:30:18;;;;;;;6.28;3.80;;;;;;;21.36;69.70;98712.73;2162535;82;20940;-83
2021/08/04 12:33:20;;;;;;;3.70;3.40;;;;;;;21.74;69.23;98711.45;2162797;82;20937;-82
2021/08/04 12:39:23;;;;;;;4.50;3.42;;;;;;;21.91;67.29;98709.92;2134042;82;20929;-80
2021/08/04 12:42:23;;;;;;;3.72;3.12;;;;;;;22.01;67.29;98705.14;2161854;82;21329;-81
2021/08/04 12:45:24;;;;;;;4.22;3.27;;;;;;;22.07;66.61;98705.41;2161922;82;20979;-82
2021/08/04 12:48:24;;;;;;;4.37;3.50;;;;;;;22.18;66.62;98706.74;2161776;82;20983;-77
2021/08/04 12:51:25;;;;;;;3.52;3.20;;;;;;;22.36;66.51;98704.32;2161867;82;20960;-82
2021/08/04 12:54:27;;;;;;;4.50;3.50;;;;;;;22.71;66.04;98705.19;2161771;82;20965;-81
2021/08/04 13:00:30;;;;;;;3.33;3.02;;;;;;;23.33;65.41;98707.12;2133409;82;20937;-83
2021/08/04 13:03:30;;;;;;;3.22;2.92;;;;;;;23.74;64.77;98708.55;2162923;82;21340;-83
2021/08/04 13:06:31;;;;;;;3.62;3.33;;;;;;;24.22;62.84;98704.63;2162567;82;21289;-82
2021/08/04 13:09:31;;;;;;;3.30;3.05;;;;;;;24.32;61.88;98700.20;2163094;82;20983;-83
2021/08/04 13:12:33;;;;;;;3.80;3.22;;;;;;;24.26;60.95;98693.75;2161115;82;20986;-83
2021/08/04 13:15:33;;;;;;;4.40;4.00;;;;;;;24.15;61.06;98696.91;2156175;83;20924;-83
2021/08/04 13:18:34;;;;;;;34.45;8.83;;;;;;;24.04;61.35;98693.86;2156650;83;20936;-81
2021/08/04 13:21:34;;;;;;;8.25;5.50;;;;;;;23.87;60.77;98692.41;2156100;83;20953;-82
2021/08/04 13:24:35;;;;;;;9.25;8.03;;;;;;;23.86;59.77;98684.48;2156689;83;20894;-82
2021/08/04 13:27:37;;;;;;;8.45;6.45;;;;;;;23.90;59.74;98690.94;2155899;82;21093;-81
2021/08/04 13:30:37;;;;;;;8.65;6.17;;;;;;;23.99;58.42;98693.20;2156051;83;21301;-83
2021/08/04 13:33:38;;;;;;;8.38;6.55;;;;;;;23.78;58.19;98687.02;2156041;82;20952;-82
2021/08/04 13:36:38;;;;;;;7.25;6.55;;;;;;;23.59;57.50;98687.42;2156255;82;20917;-81
2021/08/04 13:39:42;;;;;;;7.70;6.90;;;;;;;23.46;58.28;98685.72;2155890;83;20952;-82
2021/08/04 13:42:42;;;;;;;;;;;;;;;23.41;59.17;98689.05;2158555;83;21021;-83
2021/08/04 13:45:43;;;;;;;7.92;6.08;;;;;;;23.37;58.94;98691.41;2156260;83;20410;-82
2021/08/04 13:48:43;;;;;;;8.30;7.00;;;;;;;23.27;59.60;98696.72;2156341;83;21258;-83
2021/08/04 13:51:46;;;;;;;7.67;6.37;;;;;;;23.30;60.20;98691.27;2155950;83;21266;-82
2021/08/04 13:54:46;;;;;;;13.20;6.40;;;;;;;23.21;59.31;98690.32;2156098;83;20929;-81
2021/08/04 13:57:47;;;;;;;8.55;6.65;;;;;;;23.12;60.26;98691.56;2156045;83;20929;-82
2021/08/04 14:00:48;;;;;;;10.23;7.47;;;;;;;22.90;60.24;98688.05;2155808;83;20932;-82
2021/08/04 14:03:50;;;;;;;8.33;7.50;;;;;;;22.54;61.17;98684.99;2156151;83;21430;-82
2021/08/04 14:06:51;;;;;;;8.75;7.55;;;;;;;22.35;62.34;98683.97;2156226;82;20952;-82
2021/08/04 14:09:51;;;;;;;14.83;8.15;;;;;;;22.18;62.17;98680.63;2156167;82;20965;-79
2021/08/04 14:12:52;;;;;;;10.48;8.15;;;;;;;22.17;63.15;98681.09;2159555;82;21008;-81